sensor_id;sensor_type;location;lat;lon;timestamp;P1;durP1;ratioP1;P2;durP2;ratioP2
69989;SDS011;57331;52.054;5.294;2023-09-07T00:00:49;9.07;;;5.65;;
69989;SDS011;57331;52.054;5.294;2023-09-07T00:03:16;9.45;;;5.70;;
69989;SDS011;57331;52.054;5.294;2023-09-07T00:05:44;12.23;;;6.07;;
69989;SDS011;57331;52.054;5.294;2023-09-07T00:08:11;10.73;;;5.50;;
69989;SDS011;57331;52.054;5.294;2023-09-07T00:10:39;9.95;;;6.05;;
69989;SDS011;57331;52.054;5.294;2023-09-07T00:13:06;10.48;;;5.85;;
69989;SDS011;57331;52.054;5.294;2023-09-07T00:15:37;11.38;;;5.85;;
69989;SDS011;57331;52.054;5.294;2023-09-07T00:18:04;14.05;;;6.32;;
69989;SDS011;57331;52.054;5.294;2023-09-07T00:20:32;10.20;;;6.18;;
69989;SDS011;57331;52.054;5.294;2023-09-07T00:23:00;11.63;;;5.88;;
69989;SDS011;57331;52.054;5.294;2023-09-07T00:25:27;11.68;;;6.10;;
69989;SDS011;57331;52.054;5.294;2023-09-07T00:27:54;10.77;;;5.80;;
69989;SDS011;57331;52.054;5.294;2023-09-07T00:30:22;10.02;;;6.00;;
69989;SDS011;57331;52.054;5.294;2023-09-07T00:32:49;10.60;;;6.35;;
69989;SDS011;57331;52.054;5.294;2023-09-07T00:35:16;14.85;;;6.65;;
69989;SDS011;57331;52.054;5.294;2023-09-07T00:37:43;13.68;;;6.28;;
69989;SDS011;57331;52.054;5.294;2023-09-07T00:40:10;9.68;;;5.95;;
69989;SDS011;57331;52.054;5.294;2023-09-07T00:42:37;11.05;;;6.55;;
69989;SDS011;57331;52.054;5.294;2023-09-07T00:45:04;12.35;;;5.95;;
69989;SDS011;57331;52.054;5.294;2023-09-07T00:47:32;10.48;;;6.53;;
69989;SDS011;57331;52.054;5.294;2023-09-07T00:50:03;9.98;;;6.15;;
69989;SDS011;57331;52.054;5.294;2023-09-07T00:52:34;12.48;;;6.47;;
69989;SDS011;57331;52.054;5.294;2023-09-07T00:55:02;13.32;;;6.47;;
69989;SDS011;57331;52.054;5.294;2023-09-07T00:57:31;12.35;;;7.47;;
69989;SDS011;57331;52.054;5.294;2023-09-07T00:59:58;14.02;;;6.60;;
69989;SDS011;57331;52.054;5.294;2023-09-07T01:02:25;12.57;;;6.68;;
69989;SDS011;57331;52.054;5.294;2023-09-07T01:04:53;12.35;;;6.93;;
69989;SDS011;57331;52.054;5.294;2023-09-07T01:07:20;10.75;;;6.65;;
69989;SDS011;57331;52.054;5.294;2023-09-07T01:09:52;14.07;;;6.93;;
69989;SDS011;57331;52.054;5.294;2023-09-07T01:12:23;13.00;;;6.90;;
69989;SDS011;57331;52.054;5.294;2023-09-07T01:14:49;14.45;;;6.80;;
69989;SDS011;57331;52.054;5.294;2023-09-07T01:17:17;11.63;;;6.50;;
69989;SDS011;57331;52.054;5.294;2023-09-07T01:19:44;12.02;;;6.97;;
69989;SDS011;57331;52.054;5.294;2023-09-07T01:22:13;13.00;;;6.93;;
69989;SDS011;57331;52.054;5.294;2023-09-07T01:24:40;11.70;;;6.63;;
69989;SDS011;57331;52.054;5.294;2023-09-07T01:27:09;13.45;;;6.43;;
69989;SDS011;57331;52.054;5.294;2023-09-07T01:29:36;11.70;;;6.88;;
69989;SDS011;57331;52.054;5.294;2023-09-07T01:32:04;11.90;;;6.95;;
69989;SDS011;57331;52.054;5.294;2023-09-07T01:34:32;14.35;;;7.13;;
69989;SDS011;57331;52.054;5.294;2023-09-07T01:36:59;12.00;;;7.20;;
69989;SDS011;57331;52.054;5.294;2023-09-07T01:39:26;10.55;;;6.60;;
69989;SDS011;57331;52.054;5.294;2023-09-07T01:41:53;12.05;;;6.78;;
69989;SDS011;57331;52.054;5.294;2023-09-07T01:44:20;11.63;;;6.88;;
69989;SDS011;57331;52.054;5.294;2023-09-07T01:46:48;11.30;;;6.82;;
69989;SDS011;57331;52.054;5.294;2023-09-07T01:49:15;15.07;;;6.90;;
69989;SDS011;57331;52.054;5.294;2023-09-07T01:51:43;10.23;;;6.07;;
69989;SDS011;57331;52.054;5.294;2023-09-07T01:54:10;11.52;;;6.90;;
69989;SDS011;57331;52.054;5.294;2023-09-07T01:56:37;11.50;;;6.82;;
69989;SDS011;57331;52.054;5.294;2023-09-07T01:59:07;14.73;;;6.40;;
69989;SDS011;57331;52.054;5.294;2023-09-07T02:01:34;10.93;;;6.53;;
69989;SDS011;57331;52.054;5.294;2023-09-07T02:04:04;13.63;;;7.00;;
69989;SDS011;57331;52.054;5.294;2023-09-07T02:06:31;11.90;;;6.13;;
69989;SDS011;57331;52.054;5.294;2023-09-07T02:08:58;10.30;;;6.78;;
69989;SDS011;57331;52.054;5.294;2023-09-07T02:11:26;12.75;;;6.63;;
69989;SDS011;57331;52.054;5.294;2023-09-07T02:13:53;13.13;;;7.28;;
69989;SDS011;57331;52.054;5.294;2023-09-07T02:16:20;12.98;;;7.45;;
69989;SDS011;57331;52.054;5.294;2023-09-07T02:18:49;14.60;;;7.60;;
69989;SDS011;57331;52.054;5.294;2023-09-07T02:21:17;12.88;;;8.25;;
69989;SDS011;57331;52.054;5.294;2023-09-07T02:23:45;12.43;;;8.13;;
69989;SDS011;57331;52.054;5.294;2023-09-07T02:26:12;13.05;;;8.95;;
69989;SDS011;57331;52.054;5.294;2023-09-07T02:28:39;16.40;;;9.20;;
69989;SDS011;57331;52.054;5.294;2023-09-07T02:31:07;13.32;;;8.20;;
69989;SDS011;57331;52.054;5.294;2023-09-07T02:33:34;16.40;;;8.10;;
69989;SDS011;57331;52.054;5.294;2023-09-07T02:36:02;14.85;;;8.45;;
69989;SDS011;57331;52.054;5.294;2023-09-07T02:38:30;18.02;;;8.05;;
69989;SDS011;57331;52.054;5.294;2023-09-07T02:40:58;13.68;;;8.32;;
69989;SDS011;57331;52.054;5.294;2023-09-07T02:43:25;13.70;;;8.07;;
69989;SDS011;57331;52.054;5.294;2023-09-07T02:45:53;13.13;;;8.25;;
69989;SDS011;57331;52.054;5.294;2023-09-07T02:48:21;14.68;;;8.90;;
69989;SDS011;57331;52.054;5.294;2023-09-07T02:50:49;12.00;;;8.00;;
69989;SDS011;57331;52.054;5.294;2023-09-07T02:53:20;14.98;;;8.27;;
69989;SDS011;57331;52.054;5.294;2023-09-07T02:55:47;13.10;;;7.55;;
69989;SDS011;57331;52.054;5.294;2023-09-07T02:58:14;14.25;;;7.50;;
69989;SDS011;57331;52.054;5.294;2023-09-07T03:00:42;14.13;;;8.35;;
69989;SDS011;57331;52.054;5.294;2023-09-07T03:03:15;12.38;;;7.55;;
69989;SDS011;57331;52.054;5.294;2023-09-07T03:05:44;11.52;;;7.68;;
69989;SDS011;57331;52.054;5.294;2023-09-07T03:08:12;15.40;;;7.60;;
69989;SDS011;57331;52.054;5.294;2023-09-07T03:10:39;10.73;;;7.00;;
69989;SDS011;57331;52.054;5.294;2023-09-07T03:13:07;13.23;;;6.13;;
69989;SDS011;57331;52.054;5.294;2023-09-07T03:15:35;12.52;;;8.13;;
69989;SDS011;57331;52.054;5.294;2023-09-07T03:18:07;12.52;;;7.47;;
69989;SDS011;57331;52.054;5.294;2023-09-07T03:20:36;15.93;;;8.18;;
69989;SDS011;57331;52.054;5.294;2023-09-07T03:23:03;15.07;;;8.55;;
69989;SDS011;57331;52.054;5.294;2023-09-07T03:25:30;12.40;;;7.82;;
69989;SDS011;57331;52.054;5.294;2023-09-07T03:27:57;17.42;;;8.35;;
69989;SDS011;57331;52.054;5.294;2023-09-07T03:30:25;13.52;;;8.68;;
69989;SDS011;57331;52.054;5.294;2023-09-07T03:32:53;15.20;;;9.00;;
69989;SDS011;57331;52.054;5.294;2023-09-07T03:35:20;15.02;;;8.38;;
69989;SDS011;57331;52.054;5.294;2023-09-07T03:37:47;16.27;;;8.65;;
69989;SDS011;57331;52.054;5.294;2023-09-07T03:40:14;15.65;;;8.63;;
69989;SDS011;57331;52.054;5.294;2023-09-07T03:42:41;14.60;;;8.07;;
69989;SDS011;57331;52.054;5.294;2023-09-07T03:45:10;17.15;;;8.10;;
69989;SDS011;57331;52.054;5.294;2023-09-07T03:47:37;14.05;;;8.35;;
69989;SDS011;57331;52.054;5.294;2023-09-07T03:50:05;17.05;;;8.13;;
69989;SDS011;57331;52.054;5.294;2023-09-07T03:52:33;16.08;;;8.43;;
69989;SDS011;57331;52.054;5.294;2023-09-07T03:55:02;14.45;;;8.05;;
69989;SDS011;57331;52.054;5.294;2023-09-07T03:57:29;15.38;;;9.05;;
69989;SDS011;57331;52.054;5.294;2023-09-07T03:59:56;12.65;;;8.68;;
69989;SDS011;57331;52.054;5.294;2023-09-07T04:02:24;14.10;;;8.98;;
69989;SDS011;57331;52.054;5.294;2023-09-07T04:04:52;16.85;;;8.50;;
69989;SDS011;57331;52.054;5.294;2023-09-07T04:07:21;14.85;;;9.57;;
69989;SDS011;57331;52.054;5.294;2023-09-07T04:09:49;15.57;;;9.35;;
69989;SDS011;57331;52.054;5.294;2023-09-07T04:12:17;16.25;;;10.25;;
69989;SDS011;57331;52.054;5.294;2023-09-07T04:14:44;15.80;;;9.18;;
69989;SDS011;57331;52.054;5.294;2023-09-07T04:17:11;14.60;;;9.25;;
69989;SDS011;57331;52.054;5.294;2023-09-07T04:19:39;15.65;;;9.68;;
69989;SDS011;57331;52.054;5.294;2023-09-07T04:22:06;16.98;;;8.93;;
69989;SDS011;57331;52.054;5.294;2023-09-07T04:24:34;15.63;;;9.35;;
69989;SDS011;57331;52.054;5.294;2023-09-07T04:27:02;16.85;;;10.18;;
69989;SDS011;57331;52.054;5.294;2023-09-07T04:29:32;17.02;;;9.73;;
69989;SDS011;57331;52.054;5.294;2023-09-07T04:31:59;15.18;;;10.00;;
69989;SDS011;57331;52.054;5.294;2023-09-07T04:34:26;17.15;;;9.80;;
69989;SDS011;57331;52.054;5.294;2023-09-07T04:36:54;15.82;;;8.93;;
69989;SDS011;57331;52.054;5.294;2023-09-07T04:39:21;17.70;;;9.98;;
69989;SDS011;57331;52.054;5.294;2023-09-07T04:41:48;14.27;;;9.18;;
69989;SDS011;57331;52.054;5.294;2023-09-07T04:44:16;14.55;;;9.32;;
69989;SDS011;57331;52.054;5.294;2023-09-07T04:46:44;18.52;;;9.80;;
69989;SDS011;57331;52.054;5.294;2023-09-07T04:49:11;16.88;;;9.55;;
69989;SDS011;57331;52.054;5.294;2023-09-07T04:51:38;14.45;;;9.25;;
69989;SDS011;57331;52.054;5.294;2023-09-07T04:54:05;14.52;;;9.48;;
69989;SDS011;57331;52.054;5.294;2023-09-07T04:56:32;15.07;;;9.32;;
69989;SDS011;57331;52.054;5.294;2023-09-07T04:58:59;15.90;;;8.70;;
69989;SDS011;57331;52.054;5.294;2023-09-07T05:01:27;14.23;;;9.27;;
69989;SDS011;57331;52.054;5.294;2023-09-07T05:03:55;16.92;;;9.75;;
69989;SDS011;57331;52.054;5.294;2023-09-07T05:06:22;15.73;;;8.90;;
69989;SDS011;57331;52.054;5.294;2023-09-07T05:08:50;17.73;;;9.43;;
69989;SDS011;57331;52.054;5.294;2023-09-07T05:11:18;15.65;;;9.60;;
69989;SDS011;57331;52.054;5.294;2023-09-07T05:13:45;20.45;;;9.73;;
69989;SDS011;57331;52.054;5.294;2023-09-07T05:16:12;19.63;;;9.93;;
69989;SDS011;57331;52.054;5.294;2023-09-07T05:18:41;16.17;;;10.00;;
69989;SDS011;57331;52.054;5.294;2023-09-07T05:21:13;18.63;;;9.60;;
69989;SDS011;57331;52.054;5.294;2023-09-07T05:23:41;17.38;;;9.10;;
69989;SDS011;57331;52.054;5.294;2023-09-07T05:26:08;17.65;;;9.48;;
69989;SDS011;57331;52.054;5.294;2023-09-07T05:28:36;15.90;;;10.10;;
69989;SDS011;57331;52.054;5.294;2023-09-07T05:31:03;18.10;;;10.02;;
69989;SDS011;57331;52.054;5.294;2023-09-07T05:33:32;16.30;;;9.55;;
69989;SDS011;57331;52.054;5.294;2023-09-07T05:36:00;17.05;;;9.85;;
69989;SDS011;57331;52.054;5.294;2023-09-07T05:38:28;18.80;;;10.18;;
69989;SDS011;57331;52.054;5.294;2023-09-07T05:40:59;15.65;;;10.13;;
69989;SDS011;57331;52.054;5.294;2023-09-07T05:43:26;16.88;;;10.30;;
69989;SDS011;57331;52.054;5.294;2023-09-07T05:45:53;17.00;;;9.18;;
69989;SDS011;57331;52.054;5.294;2023-09-07T05:48:20;12.85;;;8.68;;
69989;SDS011;57331;52.054;5.294;2023-09-07T05:50:48;16.65;;;10.27;;
69989;SDS011;57331;52.054;5.294;2023-09-07T05:53:15;16.15;;;9.88;;
69989;SDS011;57331;52.054;5.294;2023-09-07T05:55:43;16.90;;;9.82;;
69989;SDS011;57331;52.054;5.294;2023-09-07T05:58:10;16.13;;;9.57;;
69989;SDS011;57331;52.054;5.294;2023-09-07T06:00:42;16.40;;;9.30;;
69989;SDS011;57331;52.054;5.294;2023-09-07T06:03:10;14.80;;;8.68;;
69989;SDS011;57331;52.054;5.294;2023-09-07T06:05:38;16.05;;;9.57;;
69989;SDS011;57331;52.054;5.294;2023-09-07T06:08:07;16.13;;;8.88;;
69989;SDS011;57331;52.054;5.294;2023-09-07T06:10:36;13.63;;;8.40;;
69989;SDS011;57331;52.054;5.294;2023-09-07T06:13:04;14.88;;;8.68;;
69989;SDS011;57331;52.054;5.294;2023-09-07T06:15:32;20.80;;;10.50;;
69989;SDS011;57331;52.054;5.294;2023-09-07T06:18:00;17.73;;;10.85;;
69989;SDS011;57331;52.054;5.294;2023-09-07T06:20:27;17.83;;;10.25;;
69989;SDS011;57331;52.054;5.294;2023-09-07T06:22:57;15.85;;;9.63;;
69989;SDS011;57331;52.054;5.294;2023-09-07T06:25:24;21.90;;;9.55;;
69989;SDS011;57331;52.054;5.294;2023-09-07T06:27:53;16.17;;;9.95;;
69989;SDS011;57331;52.054;5.294;2023-09-07T06:30:21;17.98;;;10.15;;
69989;SDS011;57331;52.054;5.294;2023-09-07T06:32:48;16.00;;;9.95;;
69989;SDS011;57331;52.054;5.294;2023-09-07T06:35:17;18.00;;;9.70;;
69989;SDS011;57331;52.054;5.294;2023-09-07T06:37:45;17.05;;;8.02;;
69989;SDS011;57331;52.054;5.294;2023-09-07T06:40:15;16.42;;;9.30;;
69989;SDS011;57331;52.054;5.294;2023-09-07T06:42:45;15.18;;;9.50;;
69989;SDS011;57331;52.054;5.294;2023-09-07T06:45:15;17.50;;;10.68;;
69989;SDS011;57331;52.054;5.294;2023-09-07T06:47:43;22.10;;;9.75;;
69989;SDS011;57331;52.054;5.294;2023-09-07T06:50:10;15.75;;;8.82;;
69989;SDS011;57331;52.054;5.294;2023-09-07T06:52:38;17.13;;;9.52;;
69989;SDS011;57331;52.054;5.294;2023-09-07T06:55:05;17.13;;;9.07;;
69989;SDS011;57331;52.054;5.294;2023-09-07T06:57:33;18.45;;;9.63;;
69989;SDS011;57331;52.054;5.294;2023-09-07T07:00:02;17.05;;;9.23;;
69989;SDS011;57331;52.054;5.294;2023-09-07T07:02:34;17.38;;;8.73;;
69989;SDS011;57331;52.054;5.294;2023-09-07T07:05:02;14.80;;;8.43;;
69989;SDS011;57331;52.054;5.294;2023-09-07T07:07:30;13.98;;;8.73;;
69989;SDS011;57331;52.054;5.294;2023-09-07T07:09:57;11.80;;;7.57;;
69989;SDS011;57331;52.054;5.294;2023-09-07T07:12:24;17.10;;;7.88;;
69989;SDS011;57331;52.054;5.294;2023-09-07T07:14:52;15.70;;;8.23;;
69989;SDS011;57331;52.054;5.294;2023-09-07T07:17:21;17.38;;;8.55;;
69989;SDS011;57331;52.054;5.294;2023-09-07T07:19:49;19.65;;;8.45;;
69989;SDS011;57331;52.054;5.294;2023-09-07T07:22:16;12.85;;;7.47;;
69989;SDS011;57331;52.054;5.294;2023-09-07T07:24:48;15.48;;;8.02;;
69989;SDS011;57331;52.054;5.294;2023-09-07T07:27:16;21.40;;;8.20;;
69989;SDS011;57331;52.054;5.294;2023-09-07T07:29:43;15.30;;;7.80;;
69989;SDS011;57331;52.054;5.294;2023-09-07T07:32:12;18.67;;;7.70;;
69989;SDS011;57331;52.054;5.294;2023-09-07T07:34:39;13.10;;;7.50;;
69989;SDS011;57331;52.054;5.294;2023-09-07T07:37:07;14.27;;;6.65;;
69989;SDS011;57331;52.054;5.294;2023-09-07T07:39:34;12.75;;;6.80;;
69989;SDS011;57331;52.054;5.294;2023-09-07T07:42:02;17.98;;;7.05;;
69989;SDS011;57331;52.054;5.294;2023-09-07T07:44:30;13.48;;;6.05;;
69989;SDS011;57331;52.054;5.294;2023-09-07T07:46:58;9.43;;;5.72;;
69989;SDS011;57331;52.054;5.294;2023-09-07T07:49:25;10.10;;;5.10;;
69989;SDS011;57331;52.054;5.294;2023-09-07T07:51:54;12.50;;;5.68;;
69989;SDS011;57331;52.054;5.294;2023-09-07T07:54:25;8.40;;;4.60;;
69989;SDS011;57331;52.054;5.294;2023-09-07T07:56:54;9.82;;;4.60;;
69989;SDS011;57331;52.054;5.294;2023-09-07T07:59:21;12.07;;;4.97;;
69989;SDS011;57331;52.054;5.294;2023-09-07T08:01:48;9.82;;;4.50;;
69989;SDS011;57331;52.054;5.294;2023-09-07T08:04:15;9.27;;;4.50;;
69989;SDS011;57331;52.054;5.294;2023-09-07T08:06:42;10.75;;;4.10;;
69989;SDS011;57331;52.054;5.294;2023-09-07T08:09:09;9.38;;;4.22;;
69989;SDS011;57331;52.054;5.294;2023-09-07T08:11:36;9.80;;;4.00;;
69989;SDS011;57331;52.054;5.294;2023-09-07T08:14:06;11.13;;;4.40;;
69989;SDS011;57331;52.054;5.294;2023-09-07T08:16:33;8.32;;;4.30;;
69989;SDS011;57331;52.054;5.294;2023-09-07T08:19:00;8.93;;;4.25;;
69989;SDS011;57331;52.054;5.294;2023-09-07T08:21:27;11.90;;;4.60;;
69989;SDS011;57331;52.054;5.294;2023-09-07T08:23:55;9.07;;;4.63;;
69989;SDS011;57331;52.054;5.294;2023-09-07T08:26:22;12.35;;;5.03;;
69989;SDS011;57331;52.054;5.294;2023-09-07T08:28:49;15.95;;;5.38;;
69989;SDS011;57331;52.054;5.294;2023-09-07T08:31:16;12.00;;;4.65;;
69989;SDS011;57331;52.054;5.294;2023-09-07T08:33:48;9.40;;;3.80;;
69989;SDS011;57331;52.054;5.294;2023-09-07T08:36:18;8.65;;;4.22;;
69989;SDS011;57331;52.054;5.294;2023-09-07T08:38:49;9.63;;;4.25;;
69989;SDS011;57331;52.054;5.294;2023-09-07T08:41:20;11.85;;;3.97;;
69989;SDS011;57331;52.054;5.294;2023-09-07T08:43:47;7.55;;;3.85;;
69989;SDS011;57331;52.054;5.294;2023-09-07T08:46:19;9.90;;;4.40;;
69989;SDS011;57331;52.054;5.294;2023-09-07T08:48:47;7.50;;;3.83;;
69989;SDS011;57331;52.054;5.294;2023-09-07T08:51:17;14.35;;;4.15;;
69989;SDS011;57331;52.054;5.294;2023-09-07T08:53:45;9.55;;;4.20;;
69989;SDS011;57331;52.054;5.294;2023-09-07T08:56:13;8.82;;;3.80;;
69989;SDS011;57331;52.054;5.294;2023-09-07T08:58:41;10.00;;;4.20;;
69989;SDS011;57331;52.054;5.294;2023-09-07T09:01:11;10.32;;;4.22;;
69989;SDS011;57331;52.054;5.294;2023-09-07T09:03:39;10.40;;;3.83;;
69989;SDS011;57331;52.054;5.294;2023-09-07T09:06:08;16.42;;;4.35;;
69989;SDS011;57331;52.054;5.294;2023-09-07T09:08:44;11.68;;;4.50;;
69989;SDS011;57331;52.054;5.294;2023-09-07T09:11:16;10.17;;;4.37;;
69989;SDS011;57331;52.054;5.294;2023-09-07T09:13:44;11.50;;;3.80;;
69989;SDS011;57331;52.054;5.294;2023-09-07T09:16:12;8.18;;;3.60;;
69989;SDS011;57331;52.054;5.294;2023-09-07T09:18:55;10.07;;;4.00;;
69989;SDS011;57331;52.054;5.294;2023-09-07T09:21:24;10.40;;;4.10;;
69989;SDS011;57331;52.054;5.294;2023-09-07T09:23:53;10.43;;;4.13;;
69989;SDS011;57331;52.054;5.294;2023-09-07T09:26:21;10.43;;;4.10;;
69989;SDS011;57331;52.054;5.294;2023-09-07T09:28:55;8.63;;;4.00;;
69989;SDS011;57331;52.054;5.294;2023-09-07T09:31:23;10.88;;;4.25;;
69989;SDS011;57331;52.054;5.294;2023-09-07T09:33:51;12.60;;;4.05;;
69989;SDS011;57331;52.054;5.294;2023-09-07T09:36:18;12.23;;;3.93;;
69989;SDS011;57331;52.054;5.294;2023-09-07T09:38:49;9.15;;;3.92;;
69989;SDS011;57331;52.054;5.294;2023-09-07T09:41:19;9.10;;;4.40;;
69989;SDS011;57331;52.054;5.294;2023-09-07T09:43:50;12.68;;;4.47;;
69989;SDS011;57331;52.054;5.294;2023-09-07T09:46:18;7.68;;;4.20;;
69989;SDS011;57331;52.054;5.294;2023-09-07T09:48:46;10.13;;;4.20;;
69989;SDS011;57331;52.054;5.294;2023-09-07T09:51:14;7.88;;;3.88;;
69989;SDS011;57331;52.054;5.294;2023-09-07T09:53:42;12.90;;;4.40;;
69989;SDS011;57331;52.054;5.294;2023-09-07T09:56:09;8.35;;;4.35;;
69989;SDS011;57331;52.054;5.294;2023-09-07T09:58:37;10.50;;;4.80;;
69989;SDS011;57331;52.054;5.294;2023-09-07T10:01:05;9.57;;;4.33;;
69989;SDS011;57331;52.054;5.294;2023-09-07T10:03:35;11.32;;;4.32;;
69989;SDS011;57331;52.054;5.294;2023-09-07T10:06:19;10.18;;;4.22;;
69989;SDS011;57331;52.054;5.294;2023-09-07T10:09:07;10.05;;;4.38;;
69989;SDS011;57331;52.054;5.294;2023-09-07T10:11:37;6.93;;;3.80;;
69989;SDS011;57331;52.054;5.294;2023-09-07T10:14:05;11.27;;;3.80;;
69989;SDS011;57331;52.054;5.294;2023-09-07T10:21:45;10.82;;;4.78;;
69989;SDS011;57331;52.054;5.294;2023-09-07T10:26:59;8.03;;;3.97;;
69989;SDS011;57331;52.054;5.294;2023-09-07T10:29:44;11.70;;;4.38;;
69989;SDS011;57331;52.054;5.294;2023-09-07T10:32:13;10.50;;;3.50;;
69989;SDS011;57331;52.054;5.294;2023-09-07T10:34:45;7.60;;;4.20;;
69989;SDS011;57331;52.054;5.294;2023-09-07T10:37:13;7.40;;;3.90;;
69989;SDS011;57331;52.054;5.294;2023-09-07T10:39:41;10.13;;;5.27;;
69989;SDS011;57331;52.054;5.294;2023-09-07T10:44:51;7.93;;;4.15;;
69989;SDS011;57331;52.054;5.294;2023-09-07T10:47:18;11.05;;;4.20;;
69989;SDS011;57331;52.054;5.294;2023-09-07T10:49:45;7.43;;;3.92;;
69989;SDS011;57331;52.054;5.294;2023-09-07T10:52:12;12.07;;;4.70;;
69989;SDS011;57331;52.054;5.294;2023-09-07T10:54:39;9.90;;;4.30;;
69989;SDS011;57331;52.054;5.294;2023-09-07T10:57:10;8.88;;;4.13;;
69989;SDS011;57331;52.054;5.294;2023-09-07T10:59:46;9.65;;;4.43;;
69989;SDS011;57331;52.054;5.294;2023-09-07T11:02:13;7.32;;;3.83;;
69989;SDS011;57331;52.054;5.294;2023-09-07T11:04:42;8.40;;;4.50;;
69989;SDS011;57331;52.054;5.294;2023-09-07T11:07:09;8.75;;;3.83;;
69989;SDS011;57331;52.054;5.294;2023-09-07T11:09:43;11.57;;;4.05;;
69989;SDS011;57331;52.054;5.294;2023-09-07T11:12:13;9.70;;;4.13;;
69989;SDS011;57331;52.054;5.294;2023-09-07T11:14:47;11.95;;;4.65;;
69989;SDS011;57331;52.054;5.294;2023-09-07T11:17:15;11.10;;;4.33;;
69989;SDS011;57331;52.054;5.294;2023-09-07T11:19:43;10.73;;;5.32;;
69989;SDS011;57331;52.054;5.294;2023-09-07T11:22:10;13.98;;;4.60;;
69989;SDS011;57331;52.054;5.294;2023-09-07T11:24:37;11.82;;;4.10;;
69989;SDS011;57331;52.054;5.294;2023-09-07T11:27:04;16.85;;;5.15;;
69989;SDS011;57331;52.054;5.294;2023-09-07T11:29:31;9.87;;;4.50;;
69989;SDS011;57331;52.054;5.294;2023-09-07T11:32:09;8.75;;;4.20;;
69989;SDS011;57331;52.054;5.294;2023-09-07T11:34:46;8.23;;;4.10;;
69989;SDS011;57331;52.054;5.294;2023-09-07T11:37:18;12.65;;;4.53;;
69989;SDS011;57331;52.054;5.294;2023-09-07T11:39:49;8.55;;;4.30;;
69989;SDS011;57331;52.054;5.294;2023-09-07T11:42:16;9.97;;;4.10;;
69989;SDS011;57331;52.054;5.294;2023-09-07T11:44:44;9.98;;;4.70;;
69989;SDS011;57331;52.054;5.294;2023-09-07T11:47:10;13.90;;;4.28;;
69989;SDS011;57331;52.054;5.294;2023-09-07T11:49:37;6.97;;;4.07;;
69989;SDS011;57331;52.054;5.294;2023-09-07T11:52:04;9.45;;;4.10;;
69989;SDS011;57331;52.054;5.294;2023-09-07T11:54:31;7.73;;;4.23;;
69989;SDS011;57331;52.054;5.294;2023-09-07T11:56:58;9.13;;;4.68;;
69989;SDS011;57331;52.054;5.294;2023-09-07T11:59:25;8.18;;;4.45;;
69989;SDS011;57331;52.054;5.294;2023-09-07T12:02:00;16.02;;;5.68;;
69989;SDS011;57331;52.054;5.294;2023-09-07T12:04:27;10.45;;;4.20;;
69989;SDS011;57331;52.054;5.294;2023-09-07T12:06:54;9.23;;;4.30;;
69989;SDS011;57331;52.054;5.294;2023-09-07T12:09:21;7.45;;;4.03;;
69989;SDS011;57331;52.054;5.294;2023-09-07T12:11:48;9.23;;;4.32;;
69989;SDS011;57331;52.054;5.294;2023-09-07T12:14:15;13.48;;;4.20;;
69989;SDS011;57331;52.054;5.294;2023-09-07T12:16:42;11.95;;;4.30;;
69989;SDS011;57331;52.054;5.294;2023-09-07T12:19:09;7.30;;;3.73;;
69989;SDS011;57331;52.054;5.294;2023-09-07T12:21:36;13.73;;;5.03;;
69989;SDS011;57331;52.054;5.294;2023-09-07T12:24:03;11.45;;;4.55;;
69989;SDS011;57331;52.054;5.294;2023-09-07T12:26:32;11.68;;;4.60;;
69989;SDS011;57331;52.054;5.294;2023-09-07T12:28:59;12.82;;;4.13;;
69989;SDS011;57331;52.054;5.294;2023-09-07T12:31:26;14.83;;;4.47;;
69989;SDS011;57331;52.054;5.294;2023-09-07T12:33:53;11.73;;;4.38;;
69989;SDS011;57331;52.054;5.294;2023-09-07T12:36:20;13.05;;;4.50;;
69989;SDS011;57331;52.054;5.294;2023-09-07T12:38:48;12.77;;;4.40;;
69989;SDS011;57331;52.054;5.294;2023-09-07T12:41:15;12.50;;;4.63;;
69989;SDS011;57331;52.054;5.294;2023-09-07T12:43:42;12.57;;;4.37;;
69989;SDS011;57331;52.054;5.294;2023-09-07T12:46:09;15.13;;;4.53;;
69989;SDS011;57331;52.054;5.294;2023-09-07T12:48:36;11.13;;;3.88;;
69989;SDS011;57331;52.054;5.294;2023-09-07T12:51:03;8.90;;;3.92;;
69989;SDS011;57331;52.054;5.294;2023-09-07T12:53:30;14.43;;;4.35;;
69989;SDS011;57331;52.054;5.294;2023-09-07T12:55:57;9.67;;;3.97;;
69989;SDS011;57331;52.054;5.294;2023-09-07T12:58:24;8.13;;;3.88;;
69989;SDS011;57331;52.054;5.294;2023-09-07T13:00:52;8.45;;;3.92;;
69989;SDS011;57331;52.054;5.294;2023-09-07T13:03:19;6.38;;;3.90;;
69989;SDS011;57331;52.054;5.294;2023-09-07T13:05:47;8.30;;;4.15;;
69989;SDS011;57331;52.054;5.294;2023-09-07T13:08:14;8.63;;;4.07;;
69989;SDS011;57331;52.054;5.294;2023-09-07T13:10:42;8.82;;;4.38;;
69989;SDS011;57331;52.054;5.294;2023-09-07T13:13:09;10.30;;;4.40;;
69989;SDS011;57331;52.054;5.294;2023-09-07T13:15:36;10.25;;;4.05;;
69989;SDS011;57331;52.054;5.294;2023-09-07T13:18:03;8.25;;;3.80;;
69989;SDS011;57331;52.054;5.294;2023-09-07T13:20:30;6.67;;;3.80;;
69989;SDS011;57331;52.054;5.294;2023-09-07T13:22:57;7.00;;;3.88;;
69989;SDS011;57331;52.054;5.294;2023-09-07T13:25:24;8.85;;;3.80;;
69989;SDS011;57331;52.054;5.294;2023-09-07T13:27:52;7.30;;;3.88;;
69989;SDS011;57331;52.054;5.294;2023-09-07T13:30:19;8.15;;;3.97;;
69989;SDS011;57331;52.054;5.294;2023-09-07T13:32:46;8.43;;;4.43;;
69989;SDS011;57331;52.054;5.294;2023-09-07T13:35:14;7.97;;;3.95;;
69989;SDS011;57331;52.054;5.294;2023-09-07T13:37:41;7.15;;;4.13;;
69989;SDS011;57331;52.054;5.294;2023-09-07T13:40:08;10.65;;;4.03;;
69989;SDS011;57331;52.054;5.294;2023-09-07T13:42:36;8.18;;;4.10;;
69989;SDS011;57331;52.054;5.294;2023-09-07T13:45:05;10.87;;;3.97;;
69989;SDS011;57331;52.054;5.294;2023-09-07T13:47:33;8.88;;;4.20;;
69989;SDS011;57331;52.054;5.294;2023-09-07T13:50:00;11.35;;;4.82;;
69989;SDS011;57331;52.054;5.294;2023-09-07T13:52:27;9.77;;;4.38;;
69989;SDS011;57331;52.054;5.294;2023-09-07T13:54:53;16.15;;;4.93;;
69989;SDS011;57331;52.054;5.294;2023-09-07T13:57:20;7.63;;;4.00;;
69989;SDS011;57331;52.054;5.294;2023-09-07T13:59:49;7.75;;;4.10;;
69989;SDS011;57331;52.054;5.294;2023-09-07T14:02:16;9.57;;;4.13;;
69989;SDS011;57331;52.054;5.294;2023-09-07T14:04:43;7.95;;;4.00;;
69989;SDS011;57331;52.054;5.294;2023-09-07T14:07:09;9.98;;;4.00;;
69989;SDS011;57331;52.054;5.294;2023-09-07T14:09:36;10.50;;;4.57;;
69989;SDS011;57331;52.054;5.294;2023-09-07T14:12:03;12.77;;;4.10;;
69989;SDS011;57331;52.054;5.294;2023-09-07T14:14:31;10.70;;;4.35;;
69989;SDS011;57331;52.054;5.294;2023-09-07T14:16:58;7.82;;;4.20;;
69989;SDS011;57331;52.054;5.294;2023-09-07T14:19:26;7.28;;;3.97;;
69989;SDS011;57331;52.054;5.294;2023-09-07T14:21:57;8.73;;;4.27;;
69989;SDS011;57331;52.054;5.294;2023-09-07T14:24:24;9.65;;;4.35;;
69989;SDS011;57331;52.054;5.294;2023-09-07T14:26:51;7.88;;;4.20;;
69989;SDS011;57331;52.054;5.294;2023-09-07T14:29:18;6.95;;;4.07;;
69989;SDS011;57331;52.054;5.294;2023-09-07T14:31:45;7.57;;;4.47;;
69989;SDS011;57331;52.054;5.294;2023-09-07T14:34:12;7.53;;;4.30;;
69989;SDS011;57331;52.054;5.294;2023-09-07T14:36:40;7.00;;;4.03;;
69989;SDS011;57331;52.054;5.294;2023-09-07T14:39:07;7.22;;;4.35;;
69989;SDS011;57331;52.054;5.294;2023-09-07T14:41:35;7.55;;;4.18;;
69989;SDS011;57331;52.054;5.294;2023-09-07T14:44:03;7.63;;;4.18;;
69989;SDS011;57331;52.054;5.294;2023-09-07T14:46:30;11.80;;;4.40;;
69989;SDS011;57331;52.054;5.294;2023-09-07T14:48:57;8.30;;;4.00;;
69989;SDS011;57331;52.054;5.294;2023-09-07T14:51:26;9.02;;;4.05;;
69989;SDS011;57331;52.054;5.294;2023-09-07T14:53:53;9.75;;;3.80;;